createdAt,value
2017-08-21T00:00:14.462Z,-4.13
2017-08-21T00:01:09.489Z,-4.13
2017-08-21T00:02:10.585Z,-4.13
2017-08-21T00:03:10.688Z,-4.13
2017-08-21T00:04:10.855Z,-4.13
2017-08-21T00:05:10.631Z,-4.13
2017-08-21T00:06:11.779Z,-4.13
2017-08-21T00:07:12.812Z,-4.13
2017-08-21T00:08:06.767Z,-4.14
2017-08-21T00:09:07.121Z,-4.14
2017-08-21T00:10:01.992Z,-4.14
2017-08-21T00:10:56.819Z,-4.14
2017-08-21T00:11:57.184Z,-4.14
2017-08-21T00:12:51.888Z,-4.14
2017-08-21T00:13:47.153Z,-4.14
2017-08-21T00:14:47.006Z,-4.14
2017-08-21T00:15:41.971Z,-4.14
2017-08-21T00:16:37.106Z,-4.14
2017-08-21T00:17:43.097Z,-4.14
2017-08-21T00:18:37.322Z,-4.14
2017-08-21T00:19:38.083Z,-4.14
2017-08-21T00:20:38.159Z,-4.14
2017-08-21T00:21:38.180Z,-4.14
2017-08-21T00:22:33.222Z,-4.14
2017-08-21T00:23:27.232Z,-4.14
2017-08-21T00:24:27.286Z,-4.14
2017-08-21T00:25:22.331Z,-4.14
2017-08-21T00:26:28.352Z,-4.14
2017-08-21T00:27:23.478Z,-4.14
2017-08-21T00:28:17.439Z,-4.14
2017-08-21T00:29:17.655Z,-4.14
2017-08-21T00:30:17.488Z,-4.14
2017-08-21T00:31:12.543Z,-4.14
2017-08-21T00:32:06.514Z,-4.14
2017-08-21T00:33:07.005Z,-4.14
2017-08-21T00:34:01.764Z,-4.14
2017-08-21T00:34:56.784Z,-4.14
2017-08-21T00:35:57.713Z,-4.14
2017-08-21T00:36:57.718Z,-4.14
2017-08-21T00:37:57.676Z,-4.14
2017-08-21T00:38:52.875Z,-4.14
2017-08-21T00:39:46.747Z,-4.14
2017-08-21T00:40:46.789Z,-4.14
2017-08-21T00:41:41.862Z,-4.14
2017-08-21T00:42:41.865Z,-4.14
2017-08-21T00:43:36.161Z,-4.14
2017-08-21T00:44:35.985Z,-4.14
2017-08-21T00:45:30.973Z,-4.14
2017-08-21T00:46:31.137Z,-4.14
2017-08-21T00:47:31.126Z,-4.14
2017-08-21T00:48:31.006Z,-4.14
2017-08-21T00:49:25.167Z,-4.14
2017-08-21T00:50:25.191Z,-4.14
2017-08-21T00:51:20.446Z,-4.14
2017-08-21T00:52:15.390Z,-4.14
2017-08-21T00:53:15.246Z,-4.14
2017-08-21T00:54:10.587Z,-4.14
2017-08-21T00:55:05.345Z,-4.14
2017-08-21T00:56:06.245Z,-4.14
2017-08-21T00:57:06.482Z,-4.14
2017-08-21T00:58:06.480Z,-4.14
2017-08-21T00:59:01.754Z,-4.14
2017-08-21T00:59:55.452Z,-4.14
2017-08-21T01:00:55.604Z,-4.14
2017-08-21T01:01:50.626Z,-4.14
2017-08-21T01:02:50.565Z,-4.14
2017-08-21T01:03:45.099Z,-4.14
2017-08-21T01:04:44.604Z,-4.14
2017-08-21T01:05:39.695Z,-4.14
2017-08-21T01:06:34.723Z,-4.14
2017-08-21T01:07:34.715Z,-4.14
2017-08-21T01:08:29.753Z,-4.14
2017-08-21T01:09:30.093Z,-4.14
2017-08-21T01:10:29.855Z,-4.14
2017-08-21T01:11:29.823Z,-4.14
2017-08-21T01:12:23.867Z,-4.14
2017-08-21T01:13:23.851Z,-4.14
2017-08-21T01:14:18.883Z,-4.14
2017-08-21T01:15:14.028Z,-4.14
2017-08-21T01:16:14.983Z,-4.14
2017-08-21T01:17:14.965Z,-4.14
2017-08-21T01:18:15.074Z,-4.14
2017-08-21T01:19:10.400Z,-4.14
2017-08-21T01:20:04.236Z,-4.14
2017-08-21T01:21:04.165Z,-4.14
2017-08-21T01:21:59.459Z,-4.14
2017-08-21T01:22:59.304Z,-4.14
2017-08-21T01:23:53.559Z,-4.14
2017-08-21T01:24:53.288Z,-4.14
2017-08-21T01:25:48.566Z,-4.14
2017-08-21T01:26:43.491Z,-4.14
2017-08-21T01:27:43.737Z,-4.14
2017-08-21T01:28:38.713Z,-4.14
2017-08-21T01:29:33.741Z,-4.14
2017-08-21T01:30:34.503Z,-4.14
2017-08-21T01:31:34.512Z,-4.14
2017-08-21T01:32:34.598Z,-4.14
2017-08-21T01:33:34.862Z,-4.14
2017-08-21T01:34:35.545Z,-4.14
2017-08-21T01:35:36.615Z,-4.14
2017-08-21T01:36:30.657Z,-4.14
2017-08-21T01:37:30.708Z,-4.14
2017-08-21T01:38:26.080Z,-4.14
2017-08-21T01:39:21.046Z,-4.14
2017-08-21T01:40:20.945Z,-4.14
2017-08-21T01:41:15.846Z,-4.14
2017-08-21T01:42:10.922Z,-4.14
2017-08-21T01:43:10.886Z,-4.14
2017-08-21T01:44:06.258Z,-4.14
2017-08-21T01:45:00.998Z,-4.14
2017-08-21T01:46:02.027Z,-4.14
2017-08-21T01:47:02.010Z,-4.14
2017-08-21T01:48:02.028Z,-4.14
2017-08-21T01:48:57.065Z,-4.14
2017-08-21T01:49:51.090Z,-4.14
2017-08-21T01:50:51.080Z,-4.15
2017-08-21T01:51:46.238Z,-4.15
2017-08-21T01:52:46.147Z,-4.15
2017-08-21T01:53:40.449Z,-4.15
2017-08-21T01:54:40.292Z,-4.15
2017-08-21T01:55:35.197Z,-4.14
2017-08-21T01:56:30.328Z,-4.14
2017-08-21T01:57:30.335Z,-4.14
2017-08-21T01:58:25.389Z,-4.14
2017-08-21T01:59:20.835Z,-4.14
2017-08-21T02:00:21.444Z,-4.14
2017-08-21T02:01:21.530Z,-4.14
2017-08-21T02:02:21.449Z,-4.14
2017-08-21T02:03:16.651Z,-4.14
2017-08-21T02:04:10.586Z,-4.14
2017-08-21T02:05:10.581Z,-4.14
2017-08-21T02:06:05.667Z,-4.14
2017-08-21T02:07:05.731Z,-4.14
2017-08-21T02:07:59.714Z,-4.14
2017-08-21T02:08:59.797Z,-4.15
2017-08-21T02:09:54.857Z,-4.15
2017-08-21T02:10:49.805Z,-4.15
2017-08-21T02:11:49.844Z,-4.15
2017-08-21T02:12:44.839Z,-4.15
2017-08-21T02:13:40.103Z,-4.15
2017-08-21T02:14:45.842Z,-4.15
2017-08-21T02:15:39.896Z,-4.15
2017-08-21T02:16:40.002Z,-4.15
2017-08-21T02:17:34.969Z,-4.15
2017-08-21T02:18:35.149Z,-4.15
2017-08-21T02:19:35.092Z,-4.15
2017-08-21T02:20:41.392Z,-4.15
2017-08-21T02:21:41.075Z,-4.15
2017-08-21T02:22:41.135Z,-4.15
2017-08-21T02:23:41.394Z,-4.15
2017-08-21T02:24:35.250Z,-4.15
2017-08-21T02:25:35.309Z,-4.15
2017-08-21T02:26:30.252Z,-4.15
2017-08-21T02:27:25.369Z,-4.15
2017-08-21T02:28:25.319Z,-4.15
2017-08-21T02:29:20.865Z,-4.15
2017-08-21T02:30:15.414Z,-4.15
2017-08-21T02:31:21.397Z,-4.15
2017-08-21T02:32:15.483Z,-4.15
2017-08-21T02:33:16.538Z,-4.15
2017-08-21T02:34:16.501Z,-4.15
2017-08-21T02:35:16.665Z,-4.15
2017-08-21T02:36:11.752Z,-4.15
2017-08-21T02:37:05.649Z,-4.15
2017-08-21T02:38:05.706Z,-4.15
2017-08-21T02:39:00.738Z,-4.15
2017-08-21T02:40:00.779Z,-4.15
2017-08-21T02:40:54.830Z,-4.15
2017-08-21T02:41:54.819Z,-4.15
2017-08-21T02:42:49.816Z,-4.15
2017-08-21T02:43:44.806Z,-4.15
2017-08-21T02:44:44.865Z,-4.15
2017-08-21T02:45:39.891Z,-4.15
2017-08-21T02:46:40.070Z,-4.15
2017-08-21T02:47:39.987Z,-4.15
2017-08-21T02:48:40.060Z,-4.15
2017-08-21T02:49:34.018Z,-4.15
2017-08-21T02:50:35.079Z,-4.15
2017-08-21T02:51:35.061Z,-4.15
2017-08-21T02:52:30.165Z,-4.15
2017-08-21T02:53:30.567Z,-4.15
2017-08-21T02:54:24.438Z,-4.15
2017-08-21T02:55:24.280Z,-4.15
2017-08-21T02:56:19.245Z,-4.15
2017-08-21T02:57:14.250Z,-4.15
2017-08-21T02:58:14.364Z,-4.15
2017-08-21T02:59:09.621Z,-4.15
2017-08-21T03:00:04.375Z,-4.15
2017-08-21T03:01:04.345Z,-4.15
2017-08-21T03:02:04.381Z,-4.15
2017-08-21T03:03:04.429Z,-4.15
2017-08-21T03:03:59.484Z,-4.15
2017-08-21T03:04:54.467Z,-4.15
2017-08-21T03:06:00.501Z,-4.15
2017-08-21T03:06:54.614Z,-4.15
2017-08-21T03:07:54.618Z,-4.15
2017-08-21T03:08:49.882Z,-4.15
2017-08-21T03:09:49.744Z,-4.15
2017-08-21T03:10:49.624Z,-4.15
2017-08-21T03:11:55.757Z,-4.15
2017-08-21T03:12:50.748Z,-4.15
2017-08-21T03:13:51.825Z,-4.15
2017-08-21T03:14:53.001Z,-4.15
2017-08-21T03:15:52.943Z,-4.15
2017-08-21T03:16:52.839Z,-4.15
2017-08-21T03:17:47.944Z,-4.15
2017-08-21T03:18:41.954Z,-4.15
2017-08-21T03:19:41.984Z,-4.15
2017-08-21T03:20:37.005Z,-4.15
2017-08-21T03:21:37.090Z,-4.15
2017-08-21T03:22:31.126Z,-4.15
2017-08-21T03:23:32.123Z,-4.15
2017-08-21T03:24:33.067Z,-4.15
2017-08-21T03:25:28.136Z,-4.15
2017-08-21T03:26:22.298Z,-4.15
2017-08-21T03:27:22.231Z,-4.15
2017-08-21T03:28:17.220Z,-4.15
2017-08-21T03:29:17.270Z,-4.15
2017-08-21T03:30:11.313Z,-4.15
2017-08-21T03:31:11.321Z,-4.15
2017-08-21T03:32:06.410Z,-4.15
2017-08-21T03:33:01.395Z,-4.15
2017-08-21T03:34:01.745Z,-4.15
2017-08-21T03:34:56.469Z,-4.15
2017-08-21T03:35:51.510Z,-4.15
2017-08-21T03:36:51.453Z,-4.15
2017-08-21T03:37:46.578Z,-4.15
2017-08-21T03:38:46.617Z,-4.15
2017-08-21T03:39:46.649Z,-4.15
2017-08-21T03:40:46.625Z,-4.15
2017-08-21T03:41:40.668Z,-4.15
2017-08-21T03:42:40.734Z,-4.15
2017-08-21T03:43:36.271Z,-4.15
2017-08-21T03:44:30.788Z,-4.15
2017-08-21T03:45:31.817Z,-4.15
2017-08-21T03:46:31.964Z,-4.15
2017-08-21T03:47:31.875Z,-4.15
2017-08-21T03:48:26.863Z,-4.15
2017-08-21T03:49:21.194Z,-4.15
2017-08-21T03:50:21.065Z,-4.15
2017-08-21T03:51:15.983Z,-4.15
2017-08-21T03:52:16.164Z,-4.15
2017-08-21T03:53:10.054Z,-4.15
2017-08-21T03:54:10.088Z,-4.15
2017-08-21T03:55:05.180Z,-4.15
2017-08-21T03:56:00.150Z,-4.15
2017-08-21T03:57:00.192Z,-4.15
2017-08-21T03:57:55.208Z,-4.15
2017-08-21T03:58:50.201Z,-4.15
2017-08-21T03:59:51.241Z,-4.15
2017-08-21T04:00:51.341Z,-4.15
2017-08-21T04:01:51.319Z,-4.15
2017-08-21T04:02:46.356Z,-4.15
2017-08-21T04:03:40.815Z,-4.15
2017-08-21T04:04:41.413Z,-4.15
2017-08-21T04:05:41.373Z,-4.15
2017-08-21T04:06:41.473Z,-4.15
2017-08-21T04:07:36.495Z,-4.15
2017-08-21T04:08:30.486Z,-4.15
2017-08-21T04:09:30.859Z,-4.15
2017-08-21T04:10:25.604Z,-4.15
2017-08-21T04:11:20.735Z,-4.15
2017-08-21T04:12:20.749Z,-4.15
2017-08-21T04:13:15.727Z,-4.15
2017-08-21T04:14:10.772Z,-4.15
2017-08-21T04:15:04.790Z,-4.15
2017-08-21T04:16:04.778Z,-4.15
2017-08-21T04:16:59.791Z,-4.15
2017-08-21T04:17:55.053Z,-4.15
2017-08-21T04:18:54.873Z,-4.15
2017-08-21T04:19:49.875Z,-4.15
2017-08-21T04:20:44.946Z,-4.15
2017-08-21T04:21:38.984Z,-4.15
2017-08-21T04:22:39.055Z,-4.15
2017-08-21T04:23:34.120Z,-4.15
2017-08-21T04:24:40.128Z,-4.15
2017-08-21T04:25:35.141Z,-4.15
2017-08-21T04:26:29.198Z,-4.15
2017-08-21T04:27:29.136Z,-4.15
2017-08-21T04:28:24.230Z,-4.15
2017-08-21T04:29:24.275Z,-4.15
2017-08-21T04:30:25.229Z,-4.15
2017-08-21T04:31:25.349Z,-4.15
2017-08-21T04:32:25.289Z,-4.15
2017-08-21T04:33:25.278Z,-4.15
2017-08-21T04:34:25.536Z,-4.15
2017-08-21T04:35:26.445Z,-4.15
2017-08-21T04:36:20.395Z,-4.15
2017-08-21T04:37:20.471Z,-4.15
2017-08-21T04:38:15.551Z,-4.15
2017-08-21T04:39:10.600Z,-4.15
2017-08-21T04:40:10.663Z,-4.15
2017-08-21T04:41:05.660Z,-4.15
2017-08-21T04:42:00.733Z,-4.15
2017-08-21T04:42:54.655Z,-4.14
2017-08-21T04:43:55.716Z,-4.14
2017-08-21T04:44:50.826Z,-4.14
2017-08-21T04:45:50.764Z,-4.14
2017-08-21T04:46:50.854Z,-4.15
2017-08-21T04:47:50.860Z,-4.14
2017-08-21T04:48:50.989Z,-4.14
2017-08-21T04:49:50.923Z,-4.14
2017-08-21T04:50:56.896Z,-4.14
2017-08-21T04:51:52.158Z,-4.14
2017-08-21T04:52:45.924Z,-4.14
2017-08-21T04:53:46.085Z,-4.14
2017-08-21T04:54:41.096Z,-4.14
2017-08-21T04:55:36.228Z,-4.14
2017-08-21T04:56:36.065Z,-4.14
2017-08-21T04:57:31.207Z,-4.14
2017-08-21T04:58:26.224Z,-4.14
2017-08-21T04:59:20.208Z,-4.14
2017-08-21T05:00:21.228Z,-4.14
2017-08-21T05:01:16.314Z,-4.14
2017-08-21T05:02:16.335Z,-4.14
2017-08-21T05:03:16.379Z,-4.14
2017-08-21T05:04:16.709Z,-4.14
2017-08-21T05:05:16.329Z,-4.14
2017-08-21T05:06:16.426Z,-4.14
2017-08-21T05:07:16.579Z,-4.14
2017-08-21T05:08:16.515Z,-4.14
2017-08-21T05:09:16.547Z,-4.14
2017-08-21T05:10:16.692Z,-4.14
2017-08-21T05:11:22.597Z,-4.14
2017-08-21T05:12:17.649Z,-4.14
2017-08-21T05:13:11.711Z,-4.14
2017-08-21T05:14:12.767Z,-4.14
2017-08-21T05:15:13.684Z,-4.14
2017-08-21T05:16:08.799Z,-4.14
2017-08-21T05:17:08.845Z,-4.14
2017-08-21T05:18:08.801Z,-4.14
2017-08-21T05:19:08.859Z,-4.13
2017-08-21T05:20:08.946Z,-4.13
2017-08-21T05:21:09.119Z,-4.13
2017-08-21T05:22:08.991Z,-4.13
2017-08-21T05:23:09.052Z,-4.13
2017-08-21T05:24:08.992Z,-4.13
2017-08-21T05:25:09.053Z,-4.13
2017-08-21T05:26:09.092Z,-4.13
2017-08-21T05:27:09.107Z,-4.13
2017-08-21T05:28:15.098Z,-4.13
2017-08-21T05:29:15.176Z,-4.13
2017-08-21T05:30:16.250Z,-4.13
2017-08-21T05:31:17.320Z,-4.13
2017-08-21T05:32:18.314Z,-4.13
2017-08-21T05:33:12.489Z,-4.13
2017-08-21T05:34:12.382Z,-4.13
2017-08-21T05:35:07.452Z,-4.12
2017-08-21T05:36:02.350Z,-4.12
2017-08-21T05:36:56.595Z,-4.12
2017-08-21T05:37:57.474Z,-4.12
2017-08-21T05:38:58.791Z,-4.12
2017-08-21T05:39:53.604Z,-4.12
2017-08-21T05:40:53.599Z,-4.12
2017-08-21T05:41:59.719Z,-4.12
2017-08-21T05:42:54.640Z,-4.12
2017-08-21T05:43:48.661Z,-4.12
2017-08-21T05:44:48.739Z,-4.12
2017-08-21T05:45:43.733Z,-4.12
2017-08-21T05:46:38.869Z,-4.12
2017-08-21T05:47:38.955Z,-4.11
2017-08-21T05:48:33.856Z,-4.11
2017-08-21T05:49:29.224Z,-4.11
2017-08-21T05:50:29.261Z,-4.11
2017-08-21T05:51:29.282Z,-4.11
2017-08-21T05:52:29.294Z,-4.11
2017-08-21T05:53:29.347Z,-4.11
2017-08-21T05:54:23.395Z,-4.11
2017-08-21T05:55:24.381Z,-4.11
2017-08-21T05:56:19.527Z,-4.11
2017-08-21T05:57:19.506Z,-4.10
2017-08-21T05:58:19.489Z,-4.10
2017-08-21T05:59:19.665Z,-4.10
2017-08-21T06:00:19.304Z,-4.10
2017-08-21T06:01:19.677Z,-4.10
2017-08-21T06:02:19.852Z,-4.10
2017-08-21T06:03:19.742Z,-4.09
2017-08-21T06:04:19.687Z,-4.09
2017-08-21T06:05:19.739Z,-4.09
2017-08-21T06:06:19.818Z,-4.09
2017-08-21T06:07:19.565Z,-4.09
2017-08-21T06:08:25.945Z,-4.09
2017-08-21T06:09:20.601Z,-4.09
2017-08-21T06:10:14.668Z,-4.09
2017-08-21T06:11:08.751Z,-4.09
2017-08-21T06:11:57.792Z,-4.10
2017-08-21T06:12:52.158Z,-4.09
2017-08-21T06:13:53.122Z,-4.10
2017-08-21T06:14:53.167Z,-4.10
2017-08-21T06:15:47.887Z,-4.10
2017-08-21T06:16:49.177Z,-4.10
2017-08-21T06:17:49.108Z,-4.10
2017-08-21T06:18:44.629Z,-4.10
2017-08-21T06:19:39.408Z,-4.10
2017-08-21T06:20:28.433Z,-4.10
2017-08-21T06:21:22.555Z,-4.10
2017-08-21T06:22:11.499Z,-4.10
2017-08-21T06:23:05.549Z,-4.10
2017-08-21T06:24:05.299Z,-4.11
2017-08-21T06:25:00.678Z,-4.11
2017-08-21T06:25:55.765Z,-4.11
2017-08-21T06:26:55.829Z,-4.11
2017-08-21T06:27:55.855Z,-4.11
2017-08-21T06:28:49.886Z,-4.12
2017-08-21T06:29:49.876Z,-4.12
2017-08-21T06:30:44.879Z,-4.12
2017-08-21T06:31:39.986Z,-4.12
2017-08-21T06:32:33.969Z,-4.12
2017-08-21T06:33:34.102Z,-4.12
2017-08-21T06:34:29.104Z,-4.12
2017-08-21T06:35:29.163Z,-4.12
2017-08-21T06:36:29.207Z,-4.12
2017-08-21T06:37:29.214Z,-4.11
2017-08-21T06:38:23.335Z,-4.11
2017-08-21T06:39:17.376Z,-4.11
2017-08-21T06:40:12.424Z,-4.11
2017-08-21T06:41:12.419Z,-4.11
2017-08-21T06:42:01.539Z,-4.11
2017-08-21T06:42:50.580Z,-4.11
2017-08-21T06:43:38.604Z,-4.10
2017-08-21T06:44:32.698Z,-4.10
2017-08-21T06:45:32.665Z,-4.10
2017-08-21T06:46:27.793Z,-4.10
2017-08-21T06:47:22.733Z,-4.09
2017-08-21T06:48:22.758Z,-4.09
2017-08-21T06:49:28.750Z,-4.09
2017-08-21T06:50:24.171Z,-4.09
2017-08-21T06:51:17.965Z,-4.08
2017-08-21T06:52:23.955Z,-4.08
2017-08-21T06:53:17.975Z,-4.08
2017-08-21T06:54:19.149Z,-4.07
2017-08-21T06:55:14.078Z,-4.07
2017-08-21T06:56:14.127Z,-4.07
2017-08-21T06:57:20.275Z,-4.07
2017-08-21T06:58:15.168Z,-4.07
2017-08-21T06:59:09.422Z,-4.07
2017-08-21T07:00:09.317Z,-4.06
2017-08-21T07:01:04.424Z,-4.06
2017-08-21T07:01:59.517Z,-4.06
2017-08-21T07:02:59.487Z,-4.06
2017-08-21T07:03:54.473Z,-4.06
2017-08-21T07:04:49.540Z,-4.06
2017-08-21T07:05:43.590Z,-4.06
2017-08-21T07:06:44.655Z,-4.05
2017-08-21T07:07:39.695Z,-4.05
2017-08-21T07:08:39.778Z,-4.05
2017-08-21T07:09:27.725Z,-4.05
2017-08-21T07:10:21.850Z,-4.05
2017-08-21T07:11:15.877Z,-4.05
2017-08-21T07:12:03.866Z,-4.05
2017-08-21T07:12:51.968Z,-4.05
2017-08-21T07:13:40.052Z,-4.05
2017-08-21T07:14:40.079Z,-4.05
2017-08-21T07:15:35.109Z,-4.05
2017-08-21T07:16:29.169Z,-4.05
2017-08-21T07:17:17.216Z,-4.05
2017-08-21T07:18:05.254Z,-4.05
2017-08-21T07:18:59.415Z,-4.04
2017-08-21T07:19:48.473Z,0.34
2017-08-21T07:20:37.482Z,-4.05
2017-08-21T07:21:25.474Z,-4.05
2017-08-21T07:22:20.587Z,-4.05
2017-08-21T07:23:20.583Z,-4.05
2017-08-21T07:24:14.769Z,-4.05
2017-08-21T07:25:03.677Z,-4.05
2017-08-21T07:25:57.752Z,-4.05
2017-08-21T07:26:52.831Z,-4.05
2017-08-21T07:27:46.853Z,-4.05
2017-08-21T07:28:42.007Z,-4.05
2017-08-21T07:29:35.978Z,-4.05
2017-08-21T07:30:29.953Z,-4.05
2017-08-21T07:31:30.058Z,-4.05
2017-08-21T07:32:30.090Z,-2.29
2017-08-21T07:33:25.164Z,-1.33
2017-08-21T07:34:25.205Z,-0.30
2017-08-21T07:35:14.174Z,-2.29
2017-08-21T07:36:03.400Z,-4.05
2017-08-21T07:36:57.321Z,-1.73
2017-08-21T07:37:51.482Z,-4.05
2017-08-21T07:38:46.478Z,-4.05
2017-08-21T07:39:41.570Z,-3.17
2017-08-21T07:40:30.612Z,-4.05
2017-08-21T07:41:25.605Z,-4.05
2017-08-21T07:42:25.736Z,-1.81
2017-08-21T07:43:20.743Z,5.74
2017-08-21T07:44:09.807Z,8.37
2017-08-21T07:45:04.875Z,7.50
2017-08-21T07:45:53.859Z,4.12
2017-08-21T07:46:42.929Z,-4.04
2017-08-21T07:47:36.948Z,15.51
2017-08-21T07:48:26.044Z,13.03
2017-08-21T07:49:20.203Z,8.30
2017-08-21T07:50:14.223Z,9.53
2017-08-21T07:51:03.233Z,8.15
2017-08-21T07:52:03.295Z,3.34
2017-08-21T07:52:57.319Z,6.07
2017-08-21T07:53:57.381Z,12.49
2017-08-21T07:54:45.474Z,-2.52
2017-08-21T07:55:45.545Z,9.75
2017-08-21T07:56:40.469Z,10.36
2017-08-21T07:57:34.645Z,-1.25
2017-08-21T07:58:34.683Z,6.68
2017-08-21T07:59:28.684Z,-1.48
2017-08-21T08:00:17.802Z,4.35
2017-08-21T08:01:11.859Z,3.96
2017-08-21T08:02:06.872Z,5.91
2017-08-21T08:03:01.047Z,5.53
2017-08-21T08:03:54.896Z,9.78
2017-08-21T08:04:44.049Z,18.95
2017-08-21T08:05:33.064Z,10.09
2017-08-21T08:06:21.188Z,9.10
2017-08-21T08:07:22.201Z,0.41
2017-08-21T08:08:10.235Z,10.50
2017-08-21T08:08:59.287Z,22.79
2017-08-21T08:09:53.263Z,32.68
2017-08-21T08:10:48.348Z,31.07
2017-08-21T08:11:43.490Z,20.86
2017-08-21T08:12:32.501Z,-1.00
2017-08-21T08:13:21.517Z,-0.44
2017-08-21T08:14:16.632Z,2.41
2017-08-21T08:15:10.672Z,13.14
2017-08-21T08:16:05.697Z,23.99
2017-08-21T08:17:00.891Z,20.52
2017-08-21T08:17:49.913Z,18.83
2017-08-21T08:18:43.907Z,27.16
2017-08-21T08:19:43.908Z,23.73
2017-08-21T08:20:38.019Z,20.97
2017-08-21T08:21:38.026Z,10.48
2017-08-21T08:22:33.167Z,11.09
2017-08-21T08:23:28.160Z,8.35
2017-08-21T08:24:22.245Z,19.90
2017-08-21T08:25:22.354Z,30.15
2017-08-21T08:26:17.392Z,33.65
2017-08-21T08:27:11.588Z,32.05
2017-08-21T08:28:05.565Z,24.07
2017-08-21T08:28:54.591Z,25.19
2017-08-21T08:29:42.652Z,28.80
2017-08-21T08:30:42.696Z,19.73
2017-08-21T08:31:30.659Z,22.80
2017-08-21T08:32:30.750Z,22.63
2017-08-21T08:33:24.822Z,26.93
2017-08-21T08:34:18.863Z,27.06
2017-08-21T08:35:12.985Z,30.53
2017-08-21T08:36:07.992Z,26.61
2017-08-21T08:37:02.055Z,24.23
2017-08-21T08:37:50.140Z,7.91
2017-08-21T08:38:51.140Z,18.84
2017-08-21T08:39:46.253Z,20.24
2017-08-21T08:40:40.269Z,20.95
2017-08-21T08:41:29.246Z,22.15
2017-08-21T08:42:23.459Z,18.69
2017-08-21T08:43:11.478Z,0.19
2017-08-21T08:44:00.549Z,8.08
2017-08-21T08:44:55.576Z,25.28
2017-08-21T08:45:49.661Z,28.16
2017-08-21T08:46:49.639Z,21.98
2017-08-21T08:47:43.793Z,31.79
2017-08-21T08:48:43.927Z,29.25
2017-08-21T08:49:32.875Z,36.65
2017-08-21T08:50:27.908Z,35.86
2017-08-21T08:51:16.915Z,34.68
2017-08-21T08:52:17.002Z,25.20
2017-08-21T08:53:11.102Z,16.55
2017-08-21T08:54:11.051Z,16.14
2017-08-21T08:55:00.136Z,12.49
2017-08-21T08:55:55.349Z,-0.90
2017-08-21T08:56:43.250Z,-2.38
2017-08-21T08:57:44.348Z,-4.05
2017-08-21T08:58:38.323Z,-2.84
2017-08-21T08:59:33.419Z,8.36
2017-08-21T09:00:27.779Z,7.37
2017-08-21T09:01:21.544Z,3.97
2017-08-21T09:02:15.610Z,27.79
2017-08-21T09:03:10.613Z,31.66
2017-08-21T09:03:58.672Z,22.27
2017-08-21T09:04:53.815Z,32.19
2017-08-21T09:05:55.075Z,37.90
2017-08-21T09:06:49.911Z,36.47
2017-08-21T09:07:43.946Z,39.67
2017-08-21T09:08:45.004Z,36.25
2017-08-21T09:09:40.017Z,35.44
2017-08-21T09:10:35.178Z,32.49
2017-08-21T09:11:24.203Z,21.50
2017-08-21T09:12:18.158Z,28.00
2017-08-21T09:13:12.265Z,30.84
2017-08-21T09:14:00.372Z,17.02
2017-08-21T09:14:49.436Z,35.41
2017-08-21T09:15:43.494Z,36.98
2017-08-21T09:16:37.538Z,39.80
2017-08-21T09:17:26.524Z,38.46
2017-08-21T09:18:20.625Z,30.85
2017-08-21T09:19:15.673Z,26.64
2017-08-21T09:20:09.767Z,34.52
2017-08-21T09:21:03.816Z,28.15
2017-08-21T09:21:58.887Z,33.55
2017-08-21T09:22:52.958Z,30.83
2017-08-21T09:23:47.077Z,20.21
2017-08-21T09:24:42.057Z,24.18
2017-08-21T09:25:30.070Z,20.40
2017-08-21T09:26:18.108Z,10.29
2017-08-21T09:27:12.300Z,17.82
2017-08-21T09:28:06.252Z,6.96
2017-08-21T09:29:06.401Z,24.84
2017-08-21T09:29:55.435Z,20.91
2017-08-21T09:30:44.437Z,19.25
2017-08-21T09:31:39.560Z,22.24
2017-08-21T09:32:34.565Z,26.05
2017-08-21T09:33:34.633Z,20.05
2017-08-21T09:34:29.604Z,12.95
2017-08-21T09:35:23.825Z,20.87
2017-08-21T09:36:18.810Z,16.86
2017-08-21T09:37:12.819Z,9.12
2017-08-21T09:38:01.765Z,13.39
2017-08-21T09:38:56.860Z,26.98
2017-08-21T09:39:45.916Z,26.40
2017-08-21T09:40:39.971Z,32.88
2017-08-21T09:41:34.032Z,30.54
2017-08-21T09:42:34.133Z,24.67
2017-08-21T09:43:28.270Z,23.89
2017-08-21T09:44:28.271Z,30.01
2017-08-21T09:45:17.250Z,25.69
2017-08-21T09:46:12.359Z,17.25
2017-08-21T09:47:00.381Z,18.00
2017-08-21T09:48:00.410Z,28.39
2017-08-21T09:48:54.467Z,36.22
2017-08-21T09:49:48.471Z,38.40
2017-08-21T09:50:37.578Z,44.11
2017-08-21T09:51:26.738Z,37.99
2017-08-21T09:52:21.678Z,44.75
2017-08-21T09:53:15.864Z,43.58
2017-08-21T09:54:09.859Z,36.55
2017-08-21T09:55:03.900Z,44.46
2017-08-21T09:55:58.016Z,43.93
2017-08-21T09:56:58.025Z,35.92
2017-08-21T09:57:58.030Z,28.60
2017-08-21T09:58:58.192Z,42.23
2017-08-21T09:59:53.201Z,36.10
2017-08-21T10:00:47.191Z,34.91
2017-08-21T10:01:35.309Z,31.54
2017-08-21T10:02:29.310Z,41.03
2017-08-21T10:03:23.317Z,34.77
2017-08-21T10:04:24.456Z,41.12
2017-08-21T10:05:19.549Z,43.21
2017-08-21T10:06:14.621Z,38.66
2017-08-21T10:07:03.612Z,41.15
2017-08-21T10:07:57.746Z,42.38
2017-08-21T10:08:52.856Z,40.61
2017-08-21T10:09:53.834Z,28.67
2017-08-21T10:10:47.839Z,36.21
2017-08-21T10:11:41.874Z,34.14
2017-08-21T10:12:35.952Z,32.66
2017-08-21T10:13:30.033Z,21.86
2017-08-21T10:14:24.150Z,13.57
2017-08-21T10:15:18.133Z,4.01
2017-08-21T10:16:19.308Z,8.34
2017-08-21T10:17:13.301Z,2.60
2017-08-21T10:18:07.367Z,6.26
2017-08-21T10:19:07.425Z,13.20
2017-08-21T10:19:56.475Z,19.68
2017-08-21T10:20:56.819Z,22.27
2017-08-21T10:21:45.504Z,31.67
2017-08-21T10:22:39.568Z,36.27
2017-08-21T10:23:39.621Z,41.37
2017-08-21T10:24:34.633Z,40.38
2017-08-21T10:25:28.797Z,34.23
2017-08-21T10:26:23.884Z,38.76
2017-08-21T10:27:17.869Z,36.54
2017-08-21T10:28:05.925Z,27.14
2017-08-21T10:29:00.021Z,32.53
2017-08-21T10:29:54.125Z,30.22
2017-08-21T10:30:54.078Z,14.44
2017-08-21T10:31:43.110Z,23.26
2017-08-21T10:32:38.163Z,29.93
2017-08-21T10:33:32.329Z,31.17
2017-08-21T10:34:27.394Z,38.51
2017-08-21T10:35:22.373Z,37.38
2017-08-21T10:36:10.353Z,36.76
2017-08-21T10:37:05.652Z,42.39
2017-08-21T10:37:59.644Z,45.81
2017-08-21T10:38:54.629Z,47.61
2017-08-21T10:39:43.723Z,47.32
2017-08-21T10:40:37.697Z,46.91
2017-08-21T10:41:31.747Z,48.38
2017-08-21T10:42:20.777Z,47.90
2017-08-21T10:43:14.885Z,47.53
2017-08-21T10:44:03.951Z,45.88
2017-08-21T10:44:57.902Z,48.12
2017-08-21T10:45:52.064Z,48.01
2017-08-21T10:46:52.098Z,48.19
2017-08-21T10:47:41.181Z,47.48
2017-08-21T10:48:35.211Z,48.17
2017-08-21T10:49:29.213Z,48.14
2017-08-21T10:50:23.311Z,48.37
2017-08-21T10:51:12.388Z,48.53
2017-08-21T10:52:00.514Z,47.12
2017-08-21T10:52:48.575Z,46.17
2017-08-21T10:53:42.618Z,45.63
2017-08-21T10:54:42.536Z,42.28
2017-08-21T10:55:36.676Z,43.88
2017-08-21T10:56:30.742Z,47.21
2017-08-21T10:57:36.749Z,44.22
2017-08-21T10:58:30.965Z,45.36
2017-08-21T10:59:24.873Z,41.20
2017-08-21T11:00:19.010Z,46.44
2017-08-21T11:01:13.100Z,48.40
2017-08-21T11:02:07.039Z,49.53
2017-08-21T11:02:56.187Z,48.43
2017-08-21T11:03:45.251Z,48.76
2017-08-21T11:04:45.223Z,48.86
2017-08-21T11:05:39.383Z,48.55
2017-08-21T11:06:28.341Z,48.56
2017-08-21T11:07:16.408Z,48.11
2017-08-21T11:08:10.454Z,48.82
2017-08-21T11:08:58.485Z,48.64
2017-08-21T11:09:46.551Z,48.59
2017-08-21T11:10:35.576Z,48.96
2017-08-21T11:11:30.671Z,47.96
2017-08-21T11:12:24.725Z,49.23
2017-08-21T11:13:18.814Z,45.66
2017-08-21T11:14:08.008Z,48.88
2017-08-21T11:15:03.003Z,48.51
2017-08-21T11:15:50.982Z,47.83
2017-08-21T11:16:46.038Z,47.65
2017-08-21T11:17:35.109Z,48.56
2017-08-21T11:18:24.162Z,48.23
2017-08-21T11:19:18.242Z,47.75
2017-08-21T11:20:07.246Z,47.98
2017-08-21T11:20:56.420Z,48.54
2017-08-21T11:21:50.446Z,48.49
2017-08-21T11:22:39.520Z,48.78
2017-08-21T11:23:33.554Z,47.85
2017-08-21T11:24:33.607Z,49.02
2017-08-21T11:25:21.680Z,47.41
2017-08-21T11:26:15.758Z,48.81
2017-08-21T11:27:04.852Z,49.15
2017-08-21T11:28:04.797Z,48.64
2017-08-21T11:29:04.839Z,48.92
2017-08-21T11:29:54.032Z,46.57
2017-08-21T11:30:53.978Z,49.45
2017-08-21T11:31:48.115Z,48.68
2017-08-21T11:32:49.097Z,49.30
2017-08-21T11:33:43.243Z,48.70
2017-08-21T11:34:31.213Z,47.24
2017-08-21T11:35:25.577Z,48.11
2017-08-21T11:36:19.324Z,45.99
2017-08-21T11:37:13.438Z,46.71
2017-08-21T11:38:13.548Z,46.89
2017-08-21T11:39:02.660Z,46.82
2017-08-21T11:39:57.656Z,46.07
2017-08-21T11:40:52.975Z,47.10
2017-08-21T11:41:47.836Z,44.25
2017-08-21T11:42:41.887Z,45.61
2017-08-21T11:43:29.896Z,47.02
2017-08-21T11:44:24.972Z,46.31
2017-08-21T11:45:14.008Z,46.52
2017-08-21T11:46:08.110Z,47.90
2017-08-21T11:46:56.144Z,48.21
2017-08-21T11:47:50.192Z,48.83
2017-08-21T11:48:39.210Z,48.72
2017-08-21T11:49:34.334Z,50.20
2017-08-21T11:50:23.337Z,48.30
2017-08-21T11:51:17.407Z,48.13
2017-08-21T11:52:06.390Z,47.20
2017-08-21T11:52:55.552Z,47.79
2017-08-21T11:53:44.560Z,46.97
2017-08-21T11:54:33.590Z,46.96
2017-08-21T11:55:27.622Z,44.76
2017-08-21T11:56:15.721Z,45.00
2017-08-21T11:57:09.844Z,45.35
2017-08-21T11:58:15.889Z,45.94
2017-08-21T11:59:03.981Z,47.95
2017-08-21T11:59:57.910Z,47.23
2017-08-21T12:00:52.083Z,45.32
2017-08-21T12:01:47.057Z,43.77